createdAt,value
2022-09-29T00:01:59.970Z,30.68
2022-09-29T00:04:26.462Z,30.70
2022-09-29T00:06:52.814Z,30.68
2022-09-29T00:09:19.236Z,30.65
2022-09-29T00:11:45.760Z,30.64
2022-09-29T00:14:12.093Z,30.66
2022-09-29T00:16:38.495Z,30.81
2022-09-29T00:19:05.021Z,31.24
2022-09-29T00:21:31.375Z,30.83
2022-09-29T00:23:57.799Z,30.74
2022-09-29T00:26:24.174Z,30.68
2022-09-29T00:28:50.509Z,30.68
2022-09-29T00:31:16.930Z,30.65
2022-09-29T00:33:43.407Z,30.65
2022-09-29T00:36:09.810Z,30.65
2022-09-29T00:38:36.188Z,30.65
2022-09-29T00:41:02.674Z,30.65
2022-09-29T00:43:29.019Z,30.67
2022-09-29T00:45:55.459Z,30.75
2022-09-29T00:48:21.891Z,31.34
2022-09-29T00:50:48.247Z,30.85
2022-09-29T00:53:19.139Z,30.75
2022-09-29T00:55:47.792Z,30.75
2022-09-29T00:58:14.130Z,30.76
2022-09-29T01:00:40.527Z,30.75
2022-09-29T01:03:06.991Z,30.70
2022-09-29T01:05:33.323Z,30.71
2022-09-29T01:07:59.715Z,30.71
2022-09-29T01:10:26.214Z,30.69
2022-09-29T01:12:52.607Z,30.67
2022-09-29T01:15:18.956Z,30.72
2022-09-29T01:17:45.334Z,31.32
2022-09-29T01:20:11.678Z,30.92
2022-09-29T01:22:38.041Z,30.78
2022-09-29T01:25:04.550Z,30.74
2022-09-29T01:27:30.901Z,30.72
2022-09-29T01:29:57.245Z,30.71
2022-09-29T01:32:23.708Z,30.70
2022-09-29T01:34:50.072Z,30.70
2022-09-29T01:37:16.437Z,30.69
2022-09-29T01:39:42.830Z,30.68
2022-09-29T01:42:09.165Z,30.66
2022-09-29T01:44:35.553Z,30.67
2022-09-29T01:47:01.963Z,31.24
2022-09-29T01:49:28.376Z,30.96
2022-09-29T01:51:54.725Z,30.86
2022-09-29T01:54:21.144Z,30.83
2022-09-29T01:56:47.495Z,30.81
2022-09-29T01:59:16.320Z,30.78
2022-09-29T02:01:42.741Z,30.76
2022-09-29T02:04:09.142Z,30.71
2022-09-29T02:06:35.479Z,30.72
2022-09-29T02:09:01.888Z,30.72
2022-09-29T02:11:28.228Z,30.68
2022-09-29T02:13:54.610Z,30.71
2022-09-29T02:16:21.016Z,31.23
2022-09-29T02:18:47.402Z,30.89
2022-09-29T02:21:13.777Z,30.78
2022-09-29T02:23:40.151Z,30.71
2022-09-29T02:26:06.521Z,30.68
2022-09-29T02:28:32.894Z,30.71
2022-09-29T02:30:59.366Z,30.71
2022-09-29T02:33:25.717Z,30.68
2022-09-29T02:35:52.067Z,30.70
2022-09-29T02:38:18.523Z,30.61
2022-09-29T02:40:44.890Z,30.68
2022-09-29T02:43:11.256Z,30.68
2022-09-29T02:45:37.845Z,30.93
2022-09-29T02:48:04.272Z,31.12
2022-09-29T02:50:30.717Z,30.90
2022-09-29T02:52:57.182Z,30.86
2022-09-29T02:55:23.534Z,30.80
2022-09-29T02:57:49.872Z,30.75
2022-09-29T03:00:16.269Z,30.75
2022-09-29T03:02:42.620Z,30.72
2022-09-29T03:05:08.995Z,30.74
2022-09-29T03:07:35.436Z,30.72
2022-09-29T03:10:01.771Z,30.71
2022-09-29T03:12:28.117Z,30.73
2022-09-29T03:14:54.603Z,30.91
2022-09-29T03:17:21.001Z,31.22
2022-09-29T03:19:47.404Z,30.85
2022-09-29T03:22:13.840Z,30.79
2022-09-29T03:24:40.178Z,30.76
2022-09-29T03:27:06.530Z,30.72
2022-09-29T03:29:35.211Z,30.73
2022-09-29T03:32:01.576Z,30.74
2022-09-29T03:34:27.917Z,30.69
2022-09-29T03:36:54.374Z,30.68
2022-09-29T03:39:20.866Z,30.68
2022-09-29T03:41:47.296Z,30.66
2022-09-29T03:44:13.717Z,30.72
2022-09-29T03:46:40.052Z,31.36
2022-09-29T03:49:06.400Z,30.98
2022-09-29T03:51:32.799Z,30.88
2022-09-29T03:53:59.155Z,30.83
2022-09-29T03:56:25.488Z,30.74
2022-09-29T03:58:51.873Z,30.75
2022-09-29T04:01:18.282Z,30.73
2022-09-29T04:03:44.665Z,30.65
2022-09-29T04:06:11.043Z,30.63
2022-09-29T04:08:37.412Z,30.58
2022-09-29T04:11:03.772Z,30.58
2022-09-29T04:13:30.134Z,30.71
2022-09-29T04:15:56.570Z,30.94
2022-09-29T04:18:22.982Z,30.64
2022-09-29T04:20:49.463Z,30.56
2022-09-29T04:23:15.823Z,30.48
2022-09-29T04:25:42.175Z,30.42
2022-09-29T04:28:08.540Z,30.42
2022-09-29T04:30:34.893Z,30.43
2022-09-29T04:33:01.244Z,30.35
2022-09-29T04:35:27.755Z,30.36
2022-09-29T04:37:54.096Z,30.36
2022-09-29T04:40:20.575Z,30.38
2022-09-29T04:42:47.115Z,30.86
2022-09-29T04:45:13.439Z,30.59
2022-09-29T04:47:39.779Z,30.43
2022-09-29T04:50:06.179Z,30.37
2022-09-29T04:52:32.528Z,30.31
2022-09-29T04:54:58.900Z,30.29
2022-09-29T04:57:25.273Z,30.26
2022-09-29T04:59:51.605Z,30.24
2022-09-29T05:02:18.031Z,30.24
2022-09-29T05:04:44.521Z,30.25
2022-09-29T05:07:10.887Z,30.25
2022-09-29T05:09:37.240Z,30.51
2022-09-29T05:12:03.602Z,30.60
2022-09-29T05:14:29.949Z,30.36
2022-09-29T05:16:56.308Z,30.30
2022-09-29T05:19:22.692Z,30.23
2022-09-29T05:21:49.023Z,30.16
2022-09-29T05:24:15.354Z,30.14
2022-09-29T05:26:41.731Z,30.12
2022-09-29T05:29:08.064Z,30.09
2022-09-29T05:31:34.493Z,30.11
2022-09-29T05:34:00.918Z,30.14
2022-09-29T05:36:27.253Z,30.66
2022-09-29T05:38:53.592Z,30.28
2022-09-29T05:41:20.075Z,30.14
2022-09-29T05:43:46.444Z,30.08
2022-09-29T05:46:12.847Z,30.04
2022-09-29T05:48:39.292Z,30.00
2022-09-29T05:51:05.623Z,29.98
2022-09-29T05:53:31.958Z,29.97
2022-09-29T05:55:58.351Z,29.94
2022-09-29T05:58:24.690Z,29.85
2022-09-29T06:00:51.080Z,30.21
2022-09-29T06:03:17.465Z,29.97
2022-09-29T06:05:43.823Z,29.75
2022-09-29T06:08:10.206Z,29.66
2022-09-29T06:10:36.595Z,29.57
2022-09-29T06:13:02.949Z,29.49
2022-09-29T06:15:29.329Z,29.47
2022-09-29T06:17:55.842Z,29.41
2022-09-29T06:20:22.195Z,29.38
2022-09-29T06:22:48.556Z,29.40
2022-09-29T06:25:15.070Z,29.77
2022-09-29T06:27:41.430Z,29.64
2022-09-29T06:30:07.820Z,29.40
2022-09-29T06:32:34.334Z,29.33
2022-09-29T06:35:01.077Z,29.25
2022-09-29T06:37:27.401Z,29.20
2022-09-29T06:39:53.773Z,29.19
2022-09-29T06:42:20.132Z,29.14
2022-09-29T06:44:46.462Z,29.13
2022-09-29T06:47:12.965Z,29.11
2022-09-29T06:49:39.378Z,29.52
2022-09-29T06:52:15.619Z,29.40
2022-09-29T06:54:46.752Z,29.20
2022-09-29T06:57:13.096Z,29.10
2022-09-29T06:59:39.476Z,29.07
2022-09-29T07:02:05.891Z,29.04
2022-09-29T07:04:32.311Z,29.03
2022-09-29T07:06:58.659Z,28.96
2022-09-29T07:09:25.086Z,28.99
2022-09-29T07:11:51.435Z,29.00
2022-09-29T07:14:17.891Z,29.53
2022-09-29T07:16:44.442Z,29.19
2022-09-29T07:19:10.954Z,29.10
2022-09-29T07:21:37.827Z,29.04
2022-09-29T07:24:04.218Z,28.98
2022-09-29T07:26:30.594Z,28.97
2022-09-29T07:28:56.964Z,28.94
2022-09-29T07:31:23.511Z,28.91
2022-09-29T07:33:49.983Z,28.90
2022-09-29T07:36:16.481Z,29.13
2022-09-29T07:38:42.845Z,29.24
2022-09-29T07:41:09.199Z,29.00
2022-09-29T07:43:35.527Z,28.95
2022-09-29T07:46:02.093Z,28.91
2022-09-29T07:48:31.675Z,28.87
2022-09-29T07:50:58.643Z,28.87
2022-09-29T07:53:25.045Z,28.86
2022-09-29T07:55:51.510Z,28.87
2022-09-29T07:58:17.875Z,28.87
2022-09-29T08:00:44.304Z,29.36
2022-09-29T08:03:10.646Z,29.03
2022-09-29T08:05:37.006Z,28.90
2022-09-29T08:08:03.508Z,28.85
2022-09-29T08:10:29.850Z,28.86
2022-09-29T08:12:56.222Z,28.83
2022-09-29T08:15:22.607Z,28.79
2022-09-29T08:17:50.422Z,28.79
2022-09-29T08:20:16.785Z,28.75
2022-09-29T08:22:43.238Z,29.10
2022-09-29T08:25:09.580Z,29.08
2022-09-29T08:27:45.798Z,28.86
2022-09-29T08:30:16.929Z,28.81
2022-09-29T08:32:43.270Z,28.77
2022-09-29T08:35:09.635Z,28.78
2022-09-29T08:37:36.019Z,28.75
2022-09-29T08:40:02.356Z,28.75
2022-09-29T08:42:30.283Z,28.79
2022-09-29T08:45:09.344Z,28.86
2022-09-29T08:47:46.923Z,29.20
2022-09-29T08:50:14.025Z,28.88
2022-09-29T08:52:49.500Z,28.79
2022-09-29T08:55:21.577Z,28.74
2022-09-29T08:57:48.560Z,28.71
2022-09-29T09:00:14.891Z,28.72
2022-09-29T09:02:41.414Z,28.68
2022-09-29T09:05:07.841Z,28.66
2022-09-29T09:07:34.220Z,28.67
2022-09-29T09:10:00.580Z,29.21
2022-09-29T09:12:26.950Z,28.90
2022-09-29T09:14:53.311Z,28.74
2022-09-29T09:17:19.658Z,28.71
2022-09-29T09:19:46.057Z,28.67
2022-09-29T09:22:12.429Z,28.65
2022-09-29T09:24:38.925Z,28.66
2022-09-29T09:27:05.400Z,28.63
2022-09-29T09:29:37.214Z,28.63
2022-09-29T09:32:04.040Z,28.87
2022-09-29T09:34:41.673Z,29.02
2022-09-29T09:37:10.596Z,28.77
2022-09-29T09:39:36.980Z,28.71
2022-09-29T09:42:03.329Z,28.65
2022-09-29T09:44:29.730Z,28.65
2022-09-29T09:46:56.100Z,28.64
2022-09-29T09:49:22.488Z,28.65
2022-09-29T09:51:48.895Z,28.64
2022-09-29T09:54:15.353Z,28.71
2022-09-29T09:56:41.731Z,29.24
2022-09-29T09:59:10.430Z,28.82
2022-09-29T10:01:36.872Z,28.72
2022-09-29T10:04:03.341Z,28.70
2022-09-29T10:06:29.812Z,28.69
2022-09-29T10:08:56.226Z,28.70
2022-09-29T10:11:22.630Z,28.65
2022-09-29T10:13:49.048Z,28.63
2022-09-29T10:16:15.503Z,28.65
2022-09-29T10:18:41.926Z,28.95
2022-09-29T10:21:08.469Z,28.99
2022-09-29T10:23:36.706Z,28.78
2022-09-29T10:26:03.214Z,28.73
2022-09-29T10:28:29.646Z,28.67
2022-09-29T10:30:56.038Z,28.66
2022-09-29T10:33:22.487Z,28.65
2022-09-29T10:35:48.987Z,28.67
2022-09-29T10:38:15.435Z,28.65
2022-09-29T10:40:41.807Z,28.72
2022-09-29T10:43:08.198Z,29.25
2022-09-29T10:45:34.611Z,28.82
2022-09-29T10:48:00.959Z,28.73
2022-09-29T10:50:27.388Z,28.67
2022-09-29T10:52:53.785Z,28.66
2022-09-29T10:55:20.173Z,28.65
2022-09-29T10:57:46.603Z,28.67
2022-09-29T11:00:12.970Z,28.64
2022-09-29T11:02:39.444Z,28.65
2022-09-29T11:05:05.894Z,29.02
2022-09-29T11:07:32.271Z,28.94
2022-09-29T11:09:58.727Z,28.75
2022-09-29T11:12:25.079Z,28.68
2022-09-29T11:14:51.418Z,28.67
2022-09-29T11:17:17.758Z,28.68
2022-09-29T11:19:44.290Z,28.67
2022-09-29T11:22:10.639Z,28.65
2022-09-29T11:24:36.960Z,28.67
2022-09-29T11:27:03.434Z,28.71
2022-09-29T11:29:30.040Z,29.21
2022-09-29T11:31:56.501Z,28.91
2022-09-29T11:34:22.966Z,28.83
2022-09-29T11:36:49.348Z,28.77
2022-09-29T11:39:15.824Z,28.74
2022-09-29T11:41:42.189Z,28.71
2022-09-29T11:44:08.637Z,28.71
2022-09-29T11:46:35.088Z,28.71
2022-09-29T11:49:01.464Z,28.72
2022-09-29T11:51:27.828Z,28.80
2022-09-29T11:53:54.219Z,29.25
2022-09-29T11:56:20.594Z,28.87
2022-09-29T11:58:46.949Z,28.78
2022-09-29T12:01:13.333Z,28.74
2022-09-29T12:03:39.828Z,28.72
2022-09-29T12:06:06.234Z,28.72
2022-09-29T12:08:32.605Z,28.74
2022-09-29T12:10:58.982Z,28.71
2022-09-29T12:13:25.312Z,28.73
2022-09-29T12:15:51.662Z,28.88
2022-09-29T12:18:18.021Z,29.12
2022-09-29T12:20:44.403Z,28.87
2022-09-29T12:23:10.757Z,28.80
2022-09-29T12:25:37.266Z,28.75
2022-09-29T12:28:03.652Z,28.78
2022-09-29T12:30:30.391Z,28.80
2022-09-29T12:32:56.858Z,28.78
2022-09-29T12:35:23.284Z,28.76
2022-09-29T12:37:49.756Z,28.77
2022-09-29T12:40:16.142Z,28.95
2022-09-29T12:42:42.498Z,29.12
2022-09-29T12:45:11.224Z,28.89
2022-09-29T12:47:37.967Z,28.82
2022-09-29T12:50:04.301Z,28.79
2022-09-29T12:52:30.649Z,28.77
2022-09-29T12:54:57.310Z,28.78
2022-09-29T12:57:23.666Z,28.76
2022-09-29T12:59:50.031Z,28.75
2022-09-29T13:02:16.547Z,28.78
2022-09-29T13:04:42.962Z,28.95
2022-09-29T13:07:09.390Z,29.09
2022-09-29T13:09:36.668Z,28.89
2022-09-29T13:12:03.106Z,28.83
2022-09-29T13:14:29.513Z,28.79
2022-09-29T13:16:56.194Z,28.70
2022-09-29T13:19:34.143Z,28.74
2022-09-29T13:22:09.209Z,28.77
2022-09-29T13:24:35.568Z,28.78
2022-09-29T13:27:01.955Z,28.84
2022-09-29T13:29:28.639Z,29.04
2022-09-29T13:31:55.035Z,29.15
2022-09-29T13:34:21.643Z,28.92
2022-09-29T13:36:48.256Z,28.88
2022-09-29T13:39:14.694Z,28.85
2022-09-29T13:41:41.043Z,28.80
2022-09-29T13:44:07.424Z,28.81
2022-09-29T13:46:33.770Z,28.78
2022-09-29T13:49:00.107Z,28.78
2022-09-29T13:51:26.567Z,28.80
2022-09-29T13:53:52.974Z,28.94
2022-09-29T13:56:19.311Z,29.17
2022-09-29T13:58:45.817Z,28.93
2022-09-29T14:01:12.208Z,28.86
2022-09-29T14:03:38.591Z,28.84
2022-09-29T14:06:22.365Z,28.82
2022-09-29T14:08:51.403Z,28.81
2022-09-29T14:11:17.935Z,28.80
2022-09-29T14:13:44.339Z,28.78
2022-09-29T14:16:10.784Z,28.80
2022-09-29T14:18:37.230Z,29.00
2022-09-29T14:21:03.582Z,29.13
2022-09-29T14:23:29.919Z,28.97
2022-09-29T14:25:56.293Z,28.89
2022-09-29T14:28:22.638Z,28.86
2022-09-29T14:30:49.049Z,28.79
2022-09-29T14:33:15.594Z,28.79
2022-09-29T14:35:41.922Z,28.79
2022-09-29T14:38:08.255Z,28.79
2022-09-29T14:40:34.652Z,28.77
2022-09-29T14:43:00.997Z,28.94
2022-09-29T14:45:27.533Z,29.17
2022-09-29T14:47:53.954Z,28.91
2022-09-29T14:50:20.330Z,28.86
2022-09-29T14:52:46.695Z,28.82
2022-09-29T14:55:13.268Z,28.77
2022-09-29T14:57:39.742Z,28.78
2022-09-29T15:00:06.100Z,28.76
2022-09-29T15:02:32.514Z,28.77
2022-09-29T15:04:58.889Z,28.75
2022-09-29T15:07:25.225Z,28.87
2022-09-29T15:09:51.730Z,29.33
2022-09-29T15:12:18.064Z,28.93
2022-09-29T15:14:44.461Z,28.84
2022-09-29T15:17:10.857Z,28.80
2022-09-29T15:19:37.235Z,28.80
2022-09-29T15:22:03.590Z,28.83
2022-09-29T15:24:29.968Z,28.78
2022-09-29T15:26:56.353Z,28.76
2022-09-29T15:29:22.996Z,28.76
2022-09-29T15:31:49.651Z,28.75
2022-09-29T15:34:16.067Z,29.29
2022-09-29T15:36:42.424Z,28.90
2022-09-29T15:39:08.886Z,28.80
2022-09-29T15:41:35.246Z,28.78
2022-09-29T15:44:01.574Z,28.78
2022-09-29T15:46:28.142Z,28.76
2022-09-29T15:48:54.505Z,28.70
2022-09-29T15:51:20.861Z,28.68
2022-09-29T15:53:47.340Z,28.72
2022-09-29T15:56:13.698Z,28.71
2022-09-29T15:58:40.051Z,29.13
2022-09-29T16:01:06.617Z,28.95
2022-09-29T16:03:33.265Z,28.78
2022-09-29T16:05:59.610Z,28.73
2022-09-29T16:08:25.988Z,28.69
2022-09-29T16:10:52.329Z,28.68
2022-09-29T16:13:18.670Z,28.67
2022-09-29T16:15:45.248Z,28.66
2022-09-29T16:18:11.616Z,28.72
2022-09-29T16:20:37.950Z,28.73
2022-09-29T16:23:04.324Z,29.10
2022-09-29T16:25:30.680Z,28.97
2022-09-29T16:27:57.023Z,28.86
2022-09-29T16:30:23.502Z,28.86
2022-09-29T16:32:49.856Z,28.90
2022-09-29T16:35:16.198Z,28.90
2022-09-29T16:37:42.585Z,28.93
2022-09-29T16:40:08.944Z,28.95
2022-09-29T16:42:35.362Z,28.98
2022-09-29T16:45:01.754Z,29.00
2022-09-29T16:47:28.105Z,29.56
2022-09-29T16:49:54.480Z,29.25
2022-09-29T16:52:20.969Z,29.11
2022-09-29T16:54:47.300Z,29.05
2022-09-29T16:57:13.655Z,29.03
2022-09-29T16:59:40.128Z,29.02
2022-09-29T17:02:06.505Z,29.00
2022-09-29T17:04:32.834Z,29.01
2022-09-29T17:06:59.184Z,29.01
2022-09-29T17:09:27.792Z,29.11
2022-09-29T17:11:54.173Z,29.55
2022-09-29T17:14:20.707Z,29.22
2022-09-29T17:16:47.149Z,29.19
2022-09-29T17:19:13.612Z,29.08
2022-09-29T17:21:40.059Z,29.03
2022-09-29T17:24:06.419Z,29.01
2022-09-29T17:26:32.861Z,28.98
2022-09-29T17:28:59.260Z,28.99
2022-09-29T17:31:25.625Z,29.00
2022-09-29T17:33:52.028Z,29.20
2022-09-29T17:36:18.644Z,29.45
2022-09-29T17:38:45.022Z,29.19
2022-09-29T17:41:11.395Z,29.08
2022-09-29T17:43:37.856Z,29.02
2022-09-29T17:46:04.271Z,28.99
2022-09-29T17:48:30.685Z,28.97
2022-09-29T17:50:57.070Z,28.89
2022-09-29T17:53:23.572Z,28.88
2022-09-29T17:55:49.958Z,28.92
2022-09-29T17:58:16.357Z,28.96
2022-09-29T18:00:42.697Z,29.65
2022-09-29T18:03:09.076Z,29.13
2022-09-29T18:05:35.572Z,29.06
2022-09-29T18:08:01.913Z,29.01
2022-09-29T18:10:28.260Z,28.93
2022-09-29T18:12:54.667Z,28.93
2022-09-29T18:15:21.020Z,28.92
2022-09-29T18:17:47.397Z,28.89
2022-09-29T18:20:13.801Z,28.92
2022-09-29T18:22:40.180Z,28.91
2022-09-29T18:25:06.543Z,29.51
2022-09-29T18:27:32.935Z,29.38
2022-09-29T18:29:59.258Z,29.23
2022-09-29T18:32:25.615Z,29.10
2022-09-29T18:34:51.990Z,29.04
2022-09-29T18:37:18.386Z,29.04
2022-09-29T18:39:44.775Z,29.04
2022-09-29T18:42:11.153Z,29.00
2022-09-29T18:44:37.507Z,28.97
2022-09-29T18:47:03.864Z,28.91
2022-09-29T18:49:30.313Z,29.07
2022-09-29T18:51:56.716Z,29.71
2022-09-29T18:54:23.122Z,29.19
2022-09-29T18:56:53.798Z,29.04
2022-09-29T18:59:21.031Z,28.99
2022-09-29T19:01:47.621Z,28.97
2022-09-29T19:04:14.189Z,28.94
2022-09-29T19:06:40.534Z,28.89
2022-09-29T19:09:06.984Z,28.88
2022-09-29T19:11:33.417Z,28.90
2022-09-29T19:13:59.821Z,28.89
2022-09-29T19:16:26.235Z,29.59
2022-09-29T19:18:52.661Z,29.19
2022-09-29T19:21:19.017Z,29.03
2022-09-29T19:23:45.421Z,28.95
2022-09-29T19:26:11.793Z,28.89
2022-09-29T19:28:38.140Z,28.87
2022-09-29T19:31:04.519Z,28.86
2022-09-29T19:33:30.923Z,28.87
2022-09-29T19:35:57.289Z,28.88
2022-09-29T19:38:23.639Z,28.91
2022-09-29T19:40:50.131Z,29.58
2022-09-29T19:43:16.481Z,29.23
2022-09-29T19:45:42.870Z,29.14
2022-09-29T19:48:09.246Z,29.03
2022-09-29T19:50:35.720Z,29.00
2022-09-29T19:53:02.186Z,28.98
2022-09-29T19:55:28.584Z,28.94
2022-09-29T19:57:54.907Z,28.94
2022-09-29T20:00:21.238Z,28.89
2022-09-29T20:02:47.744Z,28.87
2022-09-29T20:05:14.112Z,29.54
2022-09-29T20:07:40.456Z,29.24
2022-09-29T20:10:06.932Z,29.08
2022-09-29T20:12:33.288Z,29.02
2022-09-29T20:14:59.626Z,28.94
2022-09-29T20:17:26.190Z,28.91
2022-09-29T20:19:52.552Z,28.93
2022-09-29T20:22:18.901Z,28.91
2022-09-29T20:24:45.361Z,28.89
2022-09-29T20:27:11.712Z,29.00
2022-09-29T20:29:38.113Z,29.64
2022-09-29T20:32:04.468Z,29.16
2022-09-29T20:34:30.832Z,28.99
2022-09-29T20:36:57.188Z,28.93
2022-09-29T20:39:23.554Z,28.90
2022-09-29T20:41:49.893Z,28.82
2022-09-29T20:44:16.301Z,28.80
2022-09-29T20:46:42.869Z,28.79
2022-09-29T20:49:09.278Z,28.78
2022-09-29T20:51:38.013Z,28.89
2022-09-29T20:54:04.689Z,29.59
2022-09-29T20:56:31.021Z,29.12
2022-09-29T20:58:57.374Z,29.00
2022-09-29T21:01:23.917Z,28.89
2022-09-29T21:03:50.298Z,28.87
2022-09-29T21:06:16.629Z,28.82
2022-09-29T21:08:43.121Z,28.76
2022-09-29T21:11:09.462Z,28.74
2022-09-29T21:13:35.828Z,28.75
2022-09-29T21:16:02.253Z,28.70
2022-09-29T21:18:28.644Z,29.40
2022-09-29T21:20:54.993Z,29.04
2022-09-29T21:23:21.374Z,28.89
2022-09-29T21:25:47.752Z,28.82
2022-09-29T21:28:14.101Z,28.79
2022-09-29T21:30:40.487Z,28.74
2022-09-29T21:33:06.830Z,28.71
2022-09-29T21:35:33.211Z,28.72
2022-09-29T21:37:59.683Z,28.67
2022-09-29T21:40:26.018Z,28.82
2022-09-29T21:42:52.439Z,29.41
2022-09-29T21:45:18.806Z,28.96
2022-09-29T21:47:45.134Z,28.83
2022-09-29T21:50:11.474Z,28.78
2022-09-29T21:52:37.872Z,28.69
2022-09-29T21:55:04.206Z,28.63
2022-09-29T21:57:30.565Z,28.60
2022-09-29T21:59:57.034Z,28.61
2022-09-29T22:02:23.463Z,28.60
2022-09-29T22:04:49.900Z,28.74
2022-09-29T22:07:16.384Z,29.42
2022-09-29T22:09:42.831Z,28.88
2022-09-29T22:12:09.202Z,28.76
2022-09-29T22:14:35.702Z,28.72
2022-09-29T22:17:02.072Z,28.64
2022-09-29T22:19:28.516Z,28.59
2022-09-29T22:21:55.010Z,28.53
2022-09-29T22:24:21.388Z,28.49
2022-09-29T22:26:47.733Z,28.48
2022-09-29T22:29:14.166Z,28.43
2022-09-29T22:31:41.064Z,29.13
2022-09-29T22:34:07.582Z,28.88
2022-09-29T22:36:33.983Z,28.65
2022-09-29T22:39:00.334Z,28.57
2022-09-29T22:41:26.669Z,28.52
2022-09-29T22:43:53.042Z,28.47
2022-09-29T22:46:19.453Z,28.43
2022-09-29T22:48:45.826Z,28.37
2022-09-29T22:51:12.201Z,28.39
2022-09-29T22:53:38.542Z,28.42
2022-09-29T22:56:04.890Z,29.13
2022-09-29T22:58:31.270Z,28.83
2022-09-29T23:00:57.629Z,28.71
2022-09-29T23:03:23.950Z,28.65
2022-09-29T23:05:50.406Z,28.60
2022-09-29T23:08:16.763Z,28.60
2022-09-29T23:10:43.110Z,28.60
2022-09-29T23:13:09.499Z,28.60
2022-09-29T23:15:35.883Z,28.60
2022-09-29T23:18:02.212Z,29.14
2022-09-29T23:20:28.718Z,29.02
2022-09-29T23:22:55.067Z,28.82
2022-09-29T23:25:21.419Z,28.75
2022-09-29T23:27:47.820Z,28.72
2022-09-29T23:30:14.240Z,28.65
2022-09-29T23:32:40.593Z,28.66
2022-09-29T23:35:07.104Z,28.63
2022-09-29T23:37:33.442Z,28.63
2022-09-29T23:39:59.814Z,28.87
2022-09-29T23:42:26.225Z,29.21
2022-09-29T23:44:52.575Z,28.91
2022-09-29T23:47:18.915Z,28.77
2022-09-29T23:49:45.292Z,28.75
2022-09-29T23:52:11.673Z,28.78
2022-09-29T23:54:38.045Z,28.76
2022-09-29T23:57:04.541Z,28.72
2022-09-29T23:59:30.922Z,28.72
